Portada
METAR-TAF:

METAR-TAF

Aeroports :

Udaipur, Índia

latitud: 24-37-04N, longitud: 73-53-46E, altitud: 513 m

Observació

L'informe es va fer fa 17 minuts, a les 10:00 UTC
Vent 5 kt del Sud-Est
Temperatura 40°C
Humitat 25%
Pressió 1000 hPa
Visibilitat: 5000 m
Núvols disperses a una alçada de 3000 ft
Núvols disperses a una alçada de 3500 ft
calitja

METAR: VAUD 251000Z 13005KT 5000 HZ SCT030 SCT035 40/16 Q1000 NOSIG

Hora: 15:47 (10:17 UTC)

Pronòstic

L'informe es va fer fa 2 hores i 17 minuts, a les 08:00 UTC
Pronòstic vàlid del 25 a les 09 UTC al 25 a les 18 UTC
Vent 3 kt amb direcció variable
Visibilitat: 6000 m
Núvols disperses a una alçada de 3000 ft
Evolucionant progressivament
l' 25 a les 14 UTC al 25 a les 16 UTC
Visibilitat: 4000 m
calitja

TAF: VAUD 250800Z 2509/2518 VRB03KT 6000 SCT030 BECMG 2514/2516 4000 HZ NSC

Observacions i pronòstics meteorològics de més de 4000 aeroports (METAR i TAF).

Les estacions disponibles són els punts grocs i vermells al mapa.

Posi el ratolí al punt desitjat per veure el nom de l'estació.

Feu clic per veure les observacions i els pronòstics meteorològics.

Per canviar el mapa: feu clic els botons verds amb una creu de color negre per apropar; al botó verd amb un guió per allunyar la imatge; o en les fletxes verdes per a mapes adjacents.


METAR-TAF: